Time;durP1;ratioP1;P1;durP2;ratioP2;P2;SDS_P1;SDS_P2;PMS_P1;PMS_P2;Temp;Humidity;BMP_temperature;BMP_pressure;BME280_temperature;BME280_humidity;BME280_pressure;Samples;Min_cycle;Max_cycle;Signal;HPM_P1;HPM_P2
2023/06/12 00:01:12;;;;;;;;;;;;;;;17.84;55.00;92582.91;2061578;69;20065;-74
2023/06/12 00:03:38;;;;;;;;;;;;;;;17.79;55.21;92589.88;2058168;69;20120;-73
2023/06/12 00:06:05;;;;;;;;;;;;;;;17.70;55.79;92582.41;2061948;69;20109;-75
2023/06/12 00:08:32;;;;;;;;;;;;;;;17.57;56.09;92586.25;2061969;69;20444;-74
2023/06/12 00:10:58;;;;;;;;;;;;;;;17.68;55.30;92591.59;2062266;69;20061;-74
2023/06/12 00:13:23;;;;;;;;;;;;;;;17.65;55.66;92586.53;2061635;69;20053;-74
2023/06/12 00:15:49;;;;;;;;;;;;;;;17.60;55.94;92577.13;2062011;69;20093;-74
2023/06/12 00:18:15;;;;;;;;;;;;;;;17.65;55.42;92583.69;2058834;69;20061;-73
2023/06/12 00:20:40;;;;;;;;;;;;;;;17.62;55.85;92585.72;2057668;69;20436;-74
2023/06/12 00:23:07;;;;;;;;;;;;;;;17.42;55.96;92590.75;2061520;69;20565;-75
2023/06/12 00:25:33;;;;;;;;;;;;;;;17.36;56.55;92582.72;2061361;69;20497;-75
2023/06/12 00:27:58;;;;;;;;;;;;;;;17.48;56.20;92582.41;2061685;69;20058;-73
2023/06/12 00:30:24;;;;;;;;;;;;;;;17.44;56.01;92587.97;2057941;69;20057;-75
2023/06/12 00:32:50;;;;;;;;;;;;;;;17.48;55.73;92593.78;2057816;69;20050;-74
2023/06/12 00:35:18;;;;;;;;;;;;;;;17.49;55.52;92590.28;2061866;69;20056;-74
2023/06/12 00:37:45;;;;;;;;;;;;;;;17.48;55.29;92580.28;2058200;69;20100;-73
2023/06/12 00:40:10;;;;;;;;;;;;;;;17.60;54.48;92591.38;2061768;69;20571;-73
2023/06/12 00:42:41;;;;;;;;;;;;;;;17.50;54.90;92588.16;2061457;69;20149;-74
2023/06/12 00:45:07;;;;;;;;;;;;;;;17.56;54.22;92577.00;2061724;69;20077;-75
2023/06/12 00:47:33;;;;;;;;;;;;;;;17.50;55.60;92586.06;2058287;69;20049;-74
2023/06/12 00:49:58;;;;;;;;;;;;;;;17.45;54.59;92580.88;2061719;69;20089;-75
2023/06/12 00:52:25;;;;;;;;;;;;;;;17.34;54.89;92579.81;2061764;69;20141;-74
2023/06/12 00:54:52;;;;;;;;;;;;;;;17.34;55.05;92585.50;2058063;69;20110;-75
2023/06/12 00:57:18;;;;;;;;;;;;;;;17.25;55.25;92593.03;2061752;69;20586;-76
2023/06/12 00:59:44;;;;;;;;;;;;;;;17.22;55.99;92582.97;2055861;69;20061;-75
2023/06/12 01:02:09;;;;;;;;;;;;;;;17.30;55.06;92582.53;2058465;69;20061;-75
2023/06/12 01:04:37;;;;;;;;;;;;;;;17.19;55.02;92580.72;2062430;69;20046;-74
2023/06/12 01:07:07;;;;;;;;;;;;;;;17.28;54.73;92580.34;2062707;69;20045;-75
2023/06/12 01:09:37;;;;;;;;;;;;;;;17.12;55.56;92585.47;2062591;69;20093;-74
2023/06/12 01:12:04;;;;;;;;;;;;;;;17.03;55.55;92581.59;2059077;69;20069;-74
2023/06/12 01:14:29;;;;;;;;;;;;;;;17.14;55.99;92584.81;2058884;69;20159;-73
2023/06/12 01:16:58;;;;;;;;;;;;;;;17.16;55.26;92582.75;2062568;69;20089;-74
2023/06/12 01:19:24;;;;;;;;;;;;;;;17.23;55.16;92578.03;2058939;69;20057;-74
2023/06/12 01:21:51;;;;;;;;;;;;;;;17.13;55.75;92572.69;2062808;69;20488;-73
2023/06/12 01:24:36;;;;;;;;;;;;;;;17.28;54.93;92573.94;2059170;69;20161;-73
2023/06/12 01:27:21;;;;;;;;;;;;;;;16.85;56.50;92563.19;2059000;69;20061;-73
2023/06/12 01:30:07;;;;;;;;;;;;;;;16.86;56.22;92564.63;2059106;69;20536;-74
2023/06/12 01:32:37;;;;;;;;;;;;;;;17.05;56.13;92561.06;2056341;69;20426;-73
2023/06/12 01:35:16;;;;;;;;;;;;;;;17.00;56.25;92568.72;2059019;69;20066;-74
2023/06/12 01:37:46;;;;;;;;;;;;;;;16.97;56.34;92566.47;2059076;69;20054;-74
2023/06/12 01:40:19;;;;;;;;;;;;;;;16.96;56.63;92562.16;2058981;69;20061;-74
2023/06/12 01:42:47;;;;;;;;;;;;;;;16.98;57.23;92562.94;2059269;69;20088;-74
2023/06/12 01:45:13;;;;;;;;;;;;;;;16.73;57.11;92561.38;2056362;69;20085;-74
2023/06/12 01:47:38;;;;;;;;;;;;;;;16.74;57.08;92557.13;2057785;69;20097;-73
2023/06/12 01:50:07;;;;;;;;;;;;;;;16.71;57.17;92566.22;2059408;69;20058;-74
2023/06/12 01:52:34;;;;;;;;;;;;;;;16.62;57.57;92561.63;2055821;69;20053;-75
2023/06/12 01:55:00;;;;;;;;;;;;;;;16.44;58.29;92562.41;2055651;69;20169;-75
2023/06/12 01:57:27;;;;;;;;;;;;;;;16.46;57.83;92568.19;2056543;69;20082;-75
2023/06/12 01:59:53;;;;;;;;;;;;;;;16.45;58.28;92568.84;2055883;69;20058;-74
2023/06/12 02:02:21;;;;;;;;;;;;;;;16.37;58.66;92562.84;2055265;69;20050;-74
2023/06/12 02:04:47;;;;;;;;;;;;;;;16.69;57.07;92563.31;2055926;69;20080;-75
2023/06/12 02:07:12;;;;;;;;;;;;;;;16.51;57.76;92566.22;2058763;69;20058;-74
2023/06/12 02:09:38;;;;;;;;;;;;;;;16.54;57.92;92564.91;2058827;69;20054;-75
2023/06/12 02:12:04;;;;;;;;;;;;;;;16.34;57.92;92567.00;2058833;69;20053;-74
2023/06/12 02:14:30;;;;;;;;;;;;;;;16.32;58.07;92564.09;2052462;69;20545;-74
2023/06/12 02:16:55;;;;;;;;;;;;;;;16.32;58.30;92573.34;2058829;69;20050;-74
2023/06/12 02:19:25;;;;;;;;;;;;;;;16.31;58.53;92560.53;2055560;69;20053;-74
2023/06/12 02:21:52;;;;;;;;;;;;;;;16.02;58.65;92570.06;2055242;69;20152;-73
2023/06/12 02:24:17;;;;;;;;;;;;;;;16.24;58.39;92575.88;2055203;69;20073;-75
2023/06/12 02:26:43;;;;;;;;;;;;;;;16.07;58.85;92576.63;2058879;69;20066;-74
2023/06/12 02:29:13;;;;;;;;;;;;;;;16.11;59.09;92577.50;2055533;69;20156;-75
2023/06/12 02:31:44;;;;;;;;;;;;;;;15.94;59.69;92573.34;2052878;69;20097;-75
2023/06/12 02:34:10;;;;;;;;;;;;;;;15.99;59.51;92577.06;2055307;69;20135;-75
2023/06/12 02:36:40;;;;;;;;;;;;;;;16.04;58.88;92578.66;2055337;69;20056;-75
2023/06/12 02:39:08;;;;;;;;;;;;;;;15.92;59.08;92578.19;2052755;69;20066;-74
2023/06/12 02:41:34;;;;;;;;;;;;;;;15.97;58.86;92576.97;2055322;69;20079;-75
2023/06/12 02:44:00;;;;;;;;;;;;;;;15.99;58.67;92577.78;2055181;69;20078;-74
2023/06/12 02:46:25;;;;;;;;;;;;;;;15.90;59.47;92575.28;2058606;69;20167;-74
2023/06/12 02:48:51;;;;;;;;;;;;;;;15.84;59.40;92575.03;2058842;69;20054;-74
2023/06/12 02:51:16;;;;;;;;;;;;;;;15.86;59.04;92575.13;2055327;69;20057;-74
2023/06/12 02:53:43;;;;;;;;;;;;;;;15.82;59.50;92583.47;2054925;69;20046;-74
2023/06/12 02:56:09;;;;;;;;;;;;;;;15.75;59.55;92576.81;2054340;69;20145;-74
2023/06/12 02:58:34;;;;;;;;;;;;;;;15.74;59.70;92578.19;2054327;69;20054;-74
2023/06/12 03:01:04;;;;;;;;;;;;;;;15.57;60.35;92567.53;2054283;69;20058;-75
2023/06/12 03:03:30;;;;;;;;;;;;;;;15.64;60.00;92572.84;2052366;69;20058;-75
2023/06/12 03:05:55;;;;;;;;;;;;;;;15.57;60.18;92576.06;2055198;69;20401;-75
2023/06/12 03:08:20;;;;;;;;;;;;;;;15.54;60.51;92569.59;2058807;69;20226;-76
2023/06/12 03:10:46;;;;;;;;;;;;;;;15.50;60.56;92569.41;2056031;69;20164;-75
2023/06/12 03:13:14;;;;;;;;;;;;;;;15.44;60.81;92569.91;2055229;69;20061;-74
2023/06/12 03:15:40;;;;;;;;;;;;;;;15.35;60.62;92573.78;2055626;69;20061;-73
2023/06/12 03:18:06;;;;;;;;;;;;;;;15.30;60.65;92577.81;2059257;69;20174;-73
2023/06/12 03:20:33;;;;;;;;;;;;;;;15.34;60.48;92575.13;2060446;69;20519;-73
2023/06/12 03:22:59;;;;;;;;;;;;;;;15.32;60.61;92569.41;2056471;69;20054;-73
2023/06/12 03:25:25;;;;;;;;;;;;;;;15.24;60.87;92572.63;2060451;69;20443;-74
2023/06/12 03:27:50;;;;;;;;;;;;;;;15.32;60.76;92571.50;2056718;69;20088;-74
2023/06/12 03:30:16;;;;;;;;;;;;;;;15.16;61.57;92582.88;2060103;69;20045;-74
2023/06/12 03:32:41;;;;;;;;;;;;;;;15.12;62.06;92582.72;2054200;69;20088;-72
2023/06/12 03:35:07;;;;;;;;;;;;;;;15.21;61.57;92585.28;2056705;69;20320;-74
2023/06/12 03:37:35;;;;;;;;;;;;;;;15.23;61.46;92574.00;2056619;69;20050;-73
2023/06/12 03:40:05;;;;;;;;;;;;;;;15.22;61.20;92580.31;2055239;69;20504;-73
2023/06/12 03:42:36;;;;;;;;;;;;;;;15.17;61.72;92579.44;2056413;69;20235;-75
2023/06/12 03:45:01;;;;;;;;;;;;;;;15.12;61.96;92579.88;2054930;69;20560;-75
2023/06/12 03:47:28;;;;;;;;;;;;;;;15.14;61.75;92575.03;2054595;69;20072;-73
2023/06/12 03:49:54;;;;;;;;;;;;;;;15.08;61.70;92583.28;2059879;69;20050;-73
2023/06/12 03:52:19;;;;;;;;;;;;;;;15.09;62.06;92584.75;2056766;69;20417;-74
2023/06/12 03:54:47;;;;;;;;;;;;;;;14.97;62.25;92590.63;2060242;69;20085;-72
2023/06/12 03:57:12;;;;;;;;;;;;;;;14.97;61.82;92587.78;2060439;69;20136;-74
2023/06/12 03:59:37;;;;;;;;;;;;;;;14.98;62.04;92589.28;2059791;69;20595;-74
2023/06/12 04:02:03;;;;;;;;;;;;;;;15.00;62.02;92600.69;2054891;69;20085;-73
2023/06/12 04:04:29;;;;;;;;;;;;;;;15.02;62.34;92591.53;2057052;69;20093;-74
2023/06/12 04:06:55;;;;;;;;;;;;;;;15.05;62.47;92593.06;2052278;69;20092;-75
2023/06/12 04:09:21;;;;;;;;;;;;;;;14.96;62.72;92605.44;2054458;69;20421;-75
2023/06/12 04:11:49;;;;;;;;;;;;;;;15.06;62.43;92599.47;2057243;69;20490;-75
2023/06/12 04:14:15;;;;;;;;;;;;;;;15.14;61.46;92600.56;2058537;69;20504;-75
2023/06/12 04:16:41;;;;;;;;;;;;;;;14.83;62.81;92606.28;2057793;69;20050;-74
2023/06/12 04:19:07;;;;;;;;;;;;;;;15.06;61.41;92607.97;2054810;69;20046;-76
2023/06/12 04:21:35;;;;;;;;;;;;;;;14.85;62.24;92606.38;2052355;69;20050;-74
2023/06/12 04:24:03;;;;;;;;;;;;;;;14.95;62.29;92604.72;2055009;69;20525;-74
2023/06/12 04:26:34;;;;;;;;;;;;;;;14.98;62.23;92602.69;2054882;69;20168;-74
2023/06/12 04:29:02;;;;;;;;;;;;;;;14.66;62.65;92599.16;2058028;69;20056;-74
2023/06/12 04:31:29;;;;;;;;;;;;;;;14.93;62.23;92603.88;2056632;69;20105;-74
2023/06/12 04:33:55;;;;;;;;;;;;;;;14.97;61.89;92609.72;2053849;69;20054;-74
2023/06/12 04:36:22;;;;;;;;;;;;;;;14.90;62.54;92610.88;2056715;69;20451;-74
2023/06/12 04:38:50;;;;;;;;;;;;;;;14.93;62.47;92615.22;2056236;69;20068;-74
2023/06/12 04:41:20;;;;;;;;;;;;;;;14.94;62.97;92619.53;2057379;69;20077;-73
2023/06/12 04:43:49;;;;;;;;;;;;;;;14.92;63.15;92616.59;2054045;69;20074;-74
2023/06/12 04:46:17;;;;;;;;;;;;;;;15.04;62.87;92617.13;2057986;69;20087;-74
2023/06/12 04:48:45;;;;;;;;;;;;;;;15.16;61.85;92619.75;2058049;69;20065;-74
2023/06/12 04:51:11;;;;;;;;;;;;;;;15.08;62.46;92614.47;2055347;69;20060;-74
2023/06/12 04:53:39;;;;;;;;;;;;;;;15.02;62.75;92619.16;2054484;69;20058;-74
2023/06/12 04:56:08;;;;;;;;;;;;;;;15.04;62.52;92619.97;2054404;69;20062;-74
2023/06/12 04:58:42;;;;;;;;;;;;;;;14.91;63.89;92615.88;2051882;69;20061;-75
2023/06/12 05:01:08;;;;;;;;;;;;;;;14.99;63.24;92616.22;2054581;69;20104;-76
2023/06/12 05:03:34;;;;;;;;;;;;;;;15.14;62.42;92611.91;2051921;69;20054;-73
2023/06/12 05:06:00;;;;;;;;;;;;;;;15.07;63.02;92615.84;2057750;69;20097;-74
2023/06/12 05:08:25;;;;;;;;;;;;;;;15.14;62.29;92617.56;2054365;69;20065;-73
2023/06/12 05:10:51;;;;;;;;;;;;;;;15.12;62.60;92611.81;2052105;69;20058;-74
2023/06/12 05:13:17;;;;;;;;;;;;;;;14.94;63.71;92608.94;2054389;69;20531;-74
2023/06/12 05:15:43;;;;;;;;;;;;;;;15.09;62.87;92613.09;2054279;69;20149;-74
2023/06/12 05:18:08;;;;;;;;;;;;;;;15.14;63.01;92611.91;2054219;69;20153;-74
2023/06/12 05:20:34;;;;;;;;;;;;;;;15.12;63.51;92613.91;2054335;69;20060;-72
2023/06/12 05:22:59;;;;;;;;;;;;;;;15.13;63.45;92601.22;2058239;69;20157;-73
2023/06/12 05:25:25;;;;;;;;;;;;;;;15.29;62.31;92606.81;2051671;69;20057;-73
2023/06/12 05:27:51;;;;;;;;;;;;;;;15.18;62.64;92606.41;2051910;69;20066;-73
2023/06/12 05:30:16;;;;;;;;;;;;;;;15.14;63.45;92602.66;2051633;69;20234;-74
2023/06/12 05:32:42;;;;;;;;;;;;;;;15.27;63.24;92601.81;2053936;69;20050;-73
2023/06/12 05:35:10;;;;;;;;;;;;;;;15.20;63.76;92602.91;2054386;69;20066;-73
2023/06/12 05:37:35;;;;;;;;;;;;;;;15.10;63.86;92611.00;2054401;69;20060;-73
2023/06/12 05:40:02;;;;;;;;;;;;;;;15.13;64.40;92606.88;2056766;69;20089;-73
2023/06/12 05:42:28;;;;;;;;;;;;;;;15.24;63.43;92603.09;2057875;69;20179;-71
2023/06/12 05:44:54;;;;;;;;;;;;;;;15.17;64.52;92604.94;2060971;69;20065;-73
2023/06/12 05:47:19;;;;;;;;;;;;;;;15.34;63.91;92608.44;2057717;69;20069;-72
2023/06/12 05:49:45;;;;;;;;;;;;;;;15.30;63.72;92611.09;2057845;69;20089;-73
2023/06/12 05:52:11;;;;;;;;;;;;;;;14.97;64.79;92604.06;2057946;69;20060;-74
2023/06/12 05:54:36;;;;;;;;;;;;;;;15.33;63.70;92598.47;2057692;69;20054;-74
2023/06/12 05:57:02;;;;;;;;;;;;;;;15.42;64.11;92601.00;2061283;69;20058;-74
2023/06/12 05:59:30;;;;;;;;;;;;;;;15.35;64.76;92604.97;2057692;69;20112;-74
2023/06/12 06:01:56;;;;;;;;;;;;;;;15.48;63.95;92597.69;2053331;69;20200;-73
2023/06/12 06:04:22;;;;;;;;;;;;;;;15.54;63.54;92600.78;2057054;69;20123;-75
2023/06/12 06:06:47;;;;;;;;;;;;;;;15.55;64.01;92595.84;2057783;69;20078;-74
2023/06/12 06:09:14;;;;;;;;;;;;;;;15.57;63.66;92593.06;2057756;69;20061;-73
2023/06/12 06:11:39;;;;;;;;;;;;;;;15.63;64.48;92599.00;2061490;69;20058;-74
2023/06/12 06:14:05;;;;;;;;;;;;;;;15.71;64.25;92588.75;2057841;69;20089;-76
2023/06/12 06:16:32;;;;;;;;;;;;;;;15.72;63.71;92593.03;2054937;69;20060;-73
2023/06/12 06:18:58;;;;;;;;;;;;;;;15.92;61.57;92581.03;2061585;69;20109;-75
2023/06/12 06:21:23;;;;;;;;;;;;;;;15.87;62.73;92585.09;2057804;69;20068;-77
2023/06/12 06:23:50;;;;;;;;;;;;;;;16.05;63.51;92579.41;2058369;69;20120;-76
2023/06/12 06:26:16;;;;;;;;;;;;;;;16.17;63.38;92574.91;2055402;69;20513;-75
2023/06/12 06:28:43;;;;;;;;;;;;;;;16.36;62.80;92575.59;2058239;69;20401;-75
2023/06/12 06:31:08;;;;;;;;;;;;;;;16.49;61.73;92583.94;2057745;69;20863;-75
2023/06/12 06:33:34;;;;;;;;;;;;;;;16.59;62.63;92568.63;2057793;69;20060;-77
2023/06/12 06:36:00;;;;;;;;;;;;;;;16.73;62.00;92578.44;2054902;69;20072;-76
2023/06/12 06:38:27;;;;;;;;;;;;;;;16.84;62.94;92573.09;2057941;69;20049;-75
2023/06/12 06:40:53;;;;;;;;;;;;;;;16.95;61.32;92572.06;2057725;69;20556;-77
2023/06/12 06:43:20;;;;;;;;;;;;;;;17.07;61.61;92569.66;2057653;69;20168;-75
2023/06/12 06:45:50;;;;;;;;;;;;;;;17.21;61.19;92566.56;2056582;69;20443;-75
2023/06/12 06:48:17;;;;;;;;;;;;;;;17.33;60.29;92569.84;2054726;69;20091;-74
2023/06/12 06:50:42;;;;;;;;;;;;;;;17.43;59.74;92569.44;2054240;69;20050;-74
2023/06/12 06:53:09;;;;;;;;;;;;;;;17.49;59.20;92572.47;2054637;69;20073;-75
2023/06/12 06:55:34;;;;;;;;;;;;;;;17.62;57.60;92567.91;2054901;69;20054;-74
2023/06/12 06:58:02;;;;;;;;;;;;;;;17.71;58.14;92566.78;2055191;69;20076;-73
2023/06/12 07:00:30;;;;;;;;;;;;;;;17.85;57.83;92563.69;2052490;69;20101;-73
2023/06/12 07:02:56;;;;;;;;;;;;;;;17.83;59.77;92558.69;2055121;69;20097;-74
2023/06/12 07:05:22;;;;;;;;;;;;;;;17.85;59.61;92558.00;2055061;69;20414;-74
2023/06/12 07:07:48;;;;;;;;;;;;;;;18.01;58.36;92556.41;2059109;69;20161;-73
2023/06/12 07:10:15;;;;;;;;;;;;;;;18.11;58.91;92550.28;2055248;69;20116;-74
2023/06/12 07:12:40;;;;;;;;;;;;;;;18.24;59.15;92551.38;2055236;69;20050;-75
2023/06/12 07:15:07;;;;;;;;;;;;;;;18.25;60.44;92553.56;2054942;69;20443;-74
2023/06/12 07:17:34;;;;;;;;;;;;;;;18.43;59.79;92544.84;2055188;69;20050;-74
2023/06/12 07:20:00;;;;;;;;;;;;;;;18.53;57.67;92535.84;2058979;69;20050;-74
2023/06/12 07:22:27;;;;;;;;;;;;;;;18.49;58.73;92527.16;2058934;69;20433;-74
2023/06/12 07:24:53;;;;;;;;;;;;;;;18.64;59.00;92526.16;2054896;69;20737;-73
2023/06/12 07:27:18;;;;;;;;;;;;;;;18.66;58.02;92517.69;2054924;69;20100;-75
2023/06/12 07:29:44;;;;;;;;;;;;;;;18.78;58.49;92514.47;2054948;69;20061;-74
2023/06/12 07:32:10;;;;;;;;;;;;;;;18.93;56.19;92509.88;2053728;69;20160;-74
2023/06/12 07:34:36;;;;;;;;;;;;;;;18.92;55.85;92512.03;2055332;69;20054;-77
2023/06/12 07:37:02;;;;;;;;;;;;;;;19.02;56.27;92509.44;2061504;69;20140;-74
2023/06/12 07:39:28;;;;;;;;;;;;;;;18.97;54.41;92507.88;2054942;69;20082;-74
2023/06/12 07:41:56;;;;;;;;;;;;;;;19.09;53.75;92506.72;2054716;69;20057;-74
2023/06/12 07:44:22;;;;;;;;;;;;;;;19.27;53.62;92499.38;2051703;69;20096;-74
2023/06/12 07:46:48;;;;;;;;;;;;;;;19.31;52.94;92504.44;2052209;69;20215;-76
2023/06/12 07:49:14;;;;;;;;;;;;;;;19.14;51.79;92496.88;2054816;69;20477;-75
2023/06/12 07:51:40;;;;;;;;;;;;;;;19.45;50.81;92493.38;2055182;69;20580;-76
2023/06/12 07:54:06;;;;;;;;;;;;;;;19.07;52.05;92493.16;2055148;69;20314;-77
2023/06/12 07:56:32;;;;;;;;;;;;;;;19.30;50.58;92497.28;2055051;69;20115;-76
2023/06/12 07:59:12;;;;;;;;;;;;;;;19.57;50.62;92489.38;2057367;69;20077;-77
2023/06/12 08:01:47;;;;;;;;;;;;;;;19.66;48.79;92491.06;2057680;69;20116;-77
2023/06/12 08:04:15;;;;;;;;;;;;;;;19.51;49.57;92487.81;2057837;69;20492;-77
2023/06/12 08:06:42;;;;;;;;;;;;;;;19.84;49.63;92477.22;2058458;69;20053;-76
2023/06/12 08:09:10;;;;;;;;;;;;;;;20.26;48.62;92474.56;2058098;69;20060;-76
2023/06/12 08:11:36;;;;;;;;;;;;;;;20.47;48.48;92469.25;2058110;69;20161;-75
2023/06/12 08:14:03;;;;;;;;;;;;;;;20.33;48.25;92471.81;2052661;69;20053;-76
2023/06/12 08:16:32;;;;;;;;;;;;;;;20.48;47.03;92459.28;2058605;69;20481;-76
2023/06/12 08:18:58;;;;;;;;;;;;;;;20.71;46.19;92464.06;2055696;69;20111;-76
2023/06/12 08:21:25;;;;;;;;;;;;;;;21.14;45.22;92461.25;2058464;69;20053;-76
2023/06/12 08:23:51;;;;;;;;;;;;;;;21.67;46.02;92462.91;2061907;69;20045;-77
2023/06/12 08:26:19;;;;;;;;;;;;;;;21.90;45.02;92452.53;2058282;69;20432;-76
2023/06/12 08:28:51;;;;;;;;;;;;;;;22.44;44.06;92456.84;2055518;69;20053;-77
2023/06/12 08:31:19;;;;;;;;;;;;;;;22.55;42.35;92461.31;2055525;69;20053;-77
2023/06/12 08:33:45;;;;;;;;;;;;;;;22.68;42.38;92456.41;2056863;69;20051;-75
2023/06/12 08:36:12;;;;;;;;;;;;;;;22.38;41.30;92460.38;2051402;69;20058;-76
2023/06/12 08:38:38;;;;;;;;;;;;;;;22.83;40.92;92446.56;2054361;69;20587;-76
2023/06/12 08:41:04;;;;;;;;;;;;;;;23.31;39.88;92448.50;2053940;69;20089;-77
2023/06/12 08:43:32;;;;;;;;;;;;;;;23.16;41.25;92444.06;2058564;69;20057;-77
2023/06/12 08:46:00;;;;;;;;;;;;;;;24.06;40.53;92454.91;2055186;69;20561;-75
2023/06/12 08:48:26;;;;;;;;;;;;;;;23.65;40.14;92447.41;2058271;69;20046;-77
2023/06/12 08:50:52;;;;;;;;;;;;;;;24.58;39.79;92439.38;2059095;69;20120;-77
2023/06/12 08:53:18;;;;;;;;;;;;;;;25.00;39.57;92429.47;2058890;69;20065;-76
2023/06/12 08:55:45;;;;;;;;;;;;;;;24.86;38.84;92432.28;2058696;69;20081;-73
2023/06/12 08:58:12;;;;;;;;;;;;;;;24.89;40.54;92430.88;2058658;69;20145;-76
2023/06/12 09:00:39;;;;;;;;;;;;;;;25.31;37.94;92432.44;2058942;69;20053;-76
2023/06/12 09:03:06;;;;;;;;;;;;;;;25.69;37.33;92431.75;2058444;69;20554;-76
2023/06/12 09:05:37;;;;;;;;;;;;;;;26.42;37.43;92424.47;2055002;69;20435;-75
2023/06/12 09:08:04;;;;;;;;;;;;;;;26.58;36.55;92427.34;2059192;69;20058;-76
2023/06/12 09:10:30;;;;;;;;;;;;;;;25.78;37.19;92423.84;2060398;69;20080;-75
2023/06/12 09:12:56;;;;;;;;;;;;;;;26.29;37.90;92426.66;2058973;69;20120;-76
2023/06/12 09:15:22;;;;;;;;;;;;;;;26.40;38.39;92424.47;2055225;69;20062;-76
2023/06/12 09:17:48;;;;;;;;;;;;;;;26.96;37.31;92422.84;2058746;69;20046;-76
2023/06/12 09:20:27;;;;;;;;;;;;;;;26.45;37.42;92412.22;2055592;69;20049;-76
2023/06/12 09:23:00;;;;;;;;;;;;;;;27.81;37.04;92418.72;2055613;69;20481;-76
2023/06/12 09:25:27;;;;;;;;;;;;;;;26.96;35.40;92408.41;2055743;69;20056;-76
2023/06/12 09:27:52;;;;;;;;;;;;;;;27.65;36.40;92413.78;2059238;69;20432;-76
2023/06/12 09:30:18;;;;;;;;;;;;;;;28.10;35.43;92417.03;2059342;69;20076;-76
2023/06/12 09:32:46;;;;;;;;;;;;;;;28.53;34.68;92416.63;2059072;69;20058;-76
2023/06/12 09:35:12;;;;;;;;;;;;;;;28.98;35.72;92407.44;2052945;69;20077;-76
2023/06/12 09:37:39;;;;;;;;;;;;;;;29.32;34.34;92403.38;2055784;69;20072;-76
2023/06/12 09:40:09;;;;;;;;;;;;;;;29.27;33.27;92412.84;2055930;69;20080;-76
2023/06/12 09:42:35;;;;;;;;;;;;;;;29.60;35.66;92407.34;2055684;69;20050;-76
2023/06/12 09:45:12;;;;;;;;;;;;;;;29.61;32.39;92403.69;2059300;69;20057;-77
2023/06/12 09:47:42;;;;;;;;;;;;;;;30.37;32.56;92393.72;2059213;69;20053;-76
2023/06/12 09:50:07;;;;;;;;;;;;;;;30.79;31.50;92395.13;2055788;69;20054;-76
2023/06/12 09:52:34;;;;;;;;;;;;;;;31.17;32.04;92389.28;2059024;69;20058;-76
2023/06/12 09:55:03;;;;;;;;;;;;;;;31.51;31.79;92399.44;2058050;69;20548;-76
2023/06/12 09:57:28;;;;;;;;;;;;;;;30.75;31.48;92397.41;2057994;69;20584;-76
2023/06/12 09:59:59;;;;;;;;;;;;;;;32.02;29.92;92386.63;2055460;69;20085;-76
2023/06/12 10:02:24;;;;;;;;;;;;;;;31.53;29.15;92387.78;2055445;69;20448;-77
2023/06/12 10:04:59;;;;;;;;;;;;;;;30.97;29.55;92378.78;2055597;69;20496;-77
2023/06/12 10:07:27;;;;;;;;;;;;;;;30.12;30.87;92373.81;2058716;69;20089;-76
2023/06/12 10:09:53;;;;;;;;;;;;;;;31.57;28.35;92387.69;2059380;69;20052;-76
2023/06/12 10:12:19;;;;;;;;;;;;;;;32.83;29.83;92366.31;2055893;69;20076;-78
2023/06/12 10:14:45;;;;;;;;;;;;;;;31.52;28.37;92366.72;2059297;69;20050;-77
2023/06/12 10:17:12;;;;;;;;;;;;;;;31.60;28.74;92359.97;2059124;69;20053;-78
2023/06/12 10:19:40;;;;;;;;;;;;;;;32.46;26.83;92354.94;2055349;69;20081;-77
2023/06/12 10:22:06;;;;;;;;;;;;;;;32.26;24.14;92353.28;2059169;69;20091;-77
2023/06/12 10:24:34;;;;;;;;;;;;;;;33.98;25.29;92358.50;2058993;69;20062;-77
2023/06/12 10:27:00;;;;;;;;;;;;;;;35.33;24.43;92356.72;2059301;69;20088;-77
2023/06/12 10:29:30;;;;;;;;;;;;;;;35.43;22.47;92356.31;2058859;69;20050;-77
2023/06/12 10:32:08;;;;;;;;;;;;;;;33.98;22.04;92355.56;2059170;69;20061;-77
2023/06/12 10:34:34;;;;;;;;;;;;;;;34.01;22.67;92351.09;2055562;69;20524;-77
2023/06/12 10:37:19;;;;;;;;;;;;;;;36.42;19.35;92356.75;2059092;69;20111;-78
2023/06/12 10:39:59;;;;;;;;;;;;;;;35.40;19.16;92352.03;2059241;69;20058;-75
2023/06/12 10:42:37;;;;;;;;;;;;;;;37.91;18.45;92349.41;2052980;69;20145;-77
2023/06/12 10:45:13;;;;;;;;;;;;;;;39.35;17.33;92350.91;2059294;69;20100;-78
2023/06/12 10:47:39;;;;;;;;;;;;;;;41.47;16.58;92355.00;2059314;69;20069;-77
2023/06/12 10:50:05;;;;;;;;;;;;;;;39.00;17.55;92351.31;2059114;69;20086;-78
2023/06/12 10:52:30;;;;;;;;;;;;;;;38.99;17.04;92349.88;2059264;69;20086;-78
2023/06/12 10:55:28;;;;;;;;;;;;;;;40.58;15.32;92341.13;2055558;69;20057;-77
2023/06/12 10:57:55;;;;;;;;;;;;;;;42.20;14.64;92335.59;2049103;70;20051;-77
2023/06/12 11:00:31;;;;;;;;;;;;;;;44.20;14.50;92354.41;2051048;70;20051;-77
2023/06/12 11:03:02;;;;;;;;;;;;;;;41.34;14.80;92326.22;2049482;70;20047;-80
2023/06/12 11:05:28;;;;;;;;;;;;;;;42.52;13.19;92335.69;2050618;70;20510;-77
2023/06/12 11:07:57;;;;;;;;;;;;;;;45.62;12.77;92339.28;2051690;70;20043;-77
2023/06/12 11:10:22;;;;;;;;;;;;;;;44.77;12.93;92331.72;2051853;70;20248;-77
2023/06/12 11:12:49;;;;;;;;;;;;;;;45.10;13.15;92329.97;2051011;70;20648;-79
2023/06/12 11:15:15;;;;;;;;;;;;;;;46.73;12.56;92331.09;2051203;70;20059;-78
2023/06/12 11:17:40;;;;;;;;;;;;;;;40.81;13.50;92311.00;2051630;70;20098;-76
2023/06/12 11:20:06;;;;;;;;;;;;;;;42.95;12.59;92309.13;2051468;70;20055;-78
2023/06/12 11:22:32;;;;;;;;;;;;;;;43.41;12.89;92303.78;2051604;70;20098;-77
2023/06/12 11:25:01;;;;;;;;;;;;;;;44.05;11.77;92306.63;2050390;70;20086;-77
2023/06/12 11:27:27;;;;;;;;;;;;;;;43.42;11.87;92311.81;2051233;70;20137;-77
2023/06/12 11:29:52;;;;;;;;;;;;;;;45.02;11.85;92309.78;2051370;70;20075;-77
2023/06/12 11:32:18;;;;;;;;;;;;;;;49.50;10.30;92324.44;2051248;69;20086;-78
2023/06/12 11:34:43;;;;;;;;;;;;;;;42.86;11.59;92288.28;2058937;69;20129;-78
2023/06/12 11:37:12;;;;;;;;;;;;;;;42.57;12.69;92286.53;2059010;69;20608;-78
2023/06/12 11:39:37;;;;;;;;;;;;;;;47.35;10.85;92298.25;2055356;69;20046;-77
2023/06/12 11:42:05;;;;;;;;;;;;;;;44.71;11.50;92290.63;2055412;69;20056;-77
2023/06/12 11:44:31;;;;;;;;;;;;;;;47.18;10.89;92298.25;2058717;69;20520;-77
2023/06/12 11:47:00;;;;;;;;;;;;;;;46.86;11.20;92287.50;2059063;69;20090;-77
2023/06/12 11:49:25;;;;;;;;;;;;;;;50.04;9.24;92308.13;2058464;69;20064;-78
2023/06/12 11:51:52;;;;;;;;;;;;;;;49.42;9.88;92298.28;2058681;69;20058;-78
2023/06/12 11:54:17;;;;;;;;;;;;;;;48.88;10.39;92292.19;2058943;69;20054;-78
2023/06/12 11:56:43;;;;;;;;;;;;;;;45.75;10.71;92277.28;2058784;69;20149;-78
2023/06/12 11:59:10;;;;;;;;;;;;;;;45.04;10.53;92279.94;2058912;69;20177;-78
2023/06/12 12:01:38;;;;;;;;;;;;;;;46.59;10.78;92276.44;2059029;69;20046;-78
2023/06/12 12:04:05;;;;;;;;;;;;;;;46.14;10.40;92277.13;2058914;69;20116;-77
2023/06/12 12:06:31;;;;;;;;;;;;;;;40.05;12.53;92249.88;2052512;69;20205;-77
2023/06/12 12:09:02;;;;;;;;;;;;;;;39.94;13.35;92249.72;2058613;69;20137;-77
2023/06/12 12:11:29;;;;;;;;;;;;;;;38.87;14.65;92240.16;2055479;69;20050;-77
2023/06/12 12:14:01;;;;;;;;;;;;;;;37.32;16.71;92247.22;2059187;69;20533;-78
2023/06/12 12:16:28;;;;;;;;;;;;;;;36.75;16.13;92229.31;2058888;69;20050;-76
2023/06/12 12:18:54;;;;;;;;;;;;;;;35.16;16.87;92233.06;2055359;69;20119;-77
2023/06/12 12:21:21;;;;;;;;;;;;;;;35.77;17.37;92221.81;2059267;69;20038;-76
2023/06/12 12:23:48;;;;;;;;;;;;;;;34.59;17.25;92218.38;2059189;69;20054;-77
2023/06/12 12:26:13;;;;;;;;;;;;;;;35.10;18.48;92220.09;2058910;69;20053;-78
2023/06/12 12:28:39;;;;;;;;;;;;;;;32.17;18.98;92207.19;2058736;69;20046;-78
2023/06/12 12:31:07;;;;;;;;;;;;;;;34.32;18.24;92210.56;2058672;69;20157;-76
2023/06/12 12:33:32;;;;;;;;;;;;;;;32.94;20.13;92201.31;2054803;69;20482;-77
2023/06/12 12:35:59;;;;;;;;;;;;;;;33.41;18.67;92207.84;2058314;69;20054;-76
2023/06/12 12:38:24;;;;;;;;;;;;;;;33.12;20.12;92203.63;2058744;69;20046;-76
2023/06/12 12:40:49;;;;;;;;;;;;;;;33.88;19.78;92201.88;2058801;69;20058;-77
2023/06/12 12:43:15;;;;;;;;;;;;;;;33.20;20.21;92199.06;2058456;69;20157;-75
2023/06/12 12:45:40;;;;;;;;;;;;;;;31.82;21.73;92193.59;2054873;69;20128;-76
2023/06/12 12:48:06;;;;;;;;;;;;;;;31.44;22.21;92191.69;2055367;69;20092;-75